• Join FlightAware (Why Join?)
  • Login
  • US Flag 
06:10PM EDT


 

Airport Tracker/Info


-or-


 

Live Flight TrackerFlight Track Log ✈ N913CS ✈ 14-Mar-2014 ✈ KBNA - KICT

Flight Track Log - Related Links

Times and Time Zones

All times are in EDT time to prevent confusion due to time zone crossing. See the N913CS flight status page for this flight to view local times or setup timezone preferences in your user account.

Time Position Orientation Groundspeed Altitude Reporting Facility
EDT Latitude Longitude Course Direction KTS MPH feet Rate Location/Type
01:09PM 36.1000 -86.7333 270° West 186 214 3,900  Level Nashville TRACON
01:10PM 36.1047 -86.7767 278° West 197 227 6,400 3,420 Climbing Memphis Center
01:11PM 36.1322 -86.8472 296° West 221 254 10,100 2,640 Climbing Memphis Center
01:12PM 36.1650 -86.9344 295° West 265 305 11,900 1,980 Climbing Memphis Center
01:13PM 36.2028 -87.0381 294° West 313 360 14,200 1,980 Climbing Memphis Center
01:14PM 36.2408 -87.1406 295° West 319 367 16,000 1,860 Climbing Memphis Center
01:15PM 36.2817 -87.2656 292° West 329 379 18,100 1,860 Climbing Memphis Center
01:16PM 36.2964 -87.3800 279° West 330 380 19,900 1,740 Climbing Memphis Center
01:17PM 36.3150 -87.4950 281° West 332 382 21,700 1,680 Climbing Memphis Center
01:18PM 36.3600 -87.6003 298° West 343 395 23,500 1,680 Climbing Memphis Center
01:19PM 36.4064 -87.7028 299° West 343 395 25,300 1,740 Climbing Memphis Center
01:20PM 36.4431 -87.8083 293° West 336 387 27,100 1,740 Climbing Memphis Center
01:21PM 36.4583 -87.9211 280° West 333 383 28,900 1,500 Climbing Memphis Center
01:22PM 36.4800 -88.0547 281° West 333 383 30,300 1,080 Climbing Memphis Center
01:23PM 36.4964 -88.1561 281° West 340 391 31,200 1,200 Climbing Memphis Center
01:24PM 36.5189 -88.2933 282° West 340 391 32,900 1,260 Climbing Memphis Center
01:25PM 36.5369 -88.4044 281° West 332 382 33,900 960 Climbing Memphis Center
01:26PM 36.5553 -88.5164 282° West 332 382 35,000 960 Climbing Memphis Center
01:27PM 36.5728 -88.6269 281° West 330 380 36,000 960 Climbing Memphis Center
01:28PM 36.5908 -88.7339 282° West 321 369 37,000 900 Climbing Memphis Center
01:29PM 36.6078 -88.8394 281° West 317 365 37,900 480 Climbing Memphis Center
01:30PM 36.6281 -88.9667 281° West 315 362 38,000  Climbing Memphis Center
01:32PM 36.6461 -89.0775 282° West 323 372 38,000  Level Memphis Center
01:33PM 36.6625 -89.1894 280° West 327 376 38,000  Level Memphis Center
01:34PM 36.6794 -89.2989 281° West 327 376 38,000  Level Memphis Center
01:35PM 36.6975 -89.4089 282° West 327 376 38,000  Level Memphis Center
01:36PM 36.7172 -89.5403 281° West 327 376 38,000  Level Memphis Center
01:37PM 36.7339 -89.6497 281° West 327 376 38,000  Level Memphis Center
01:38PM 36.7506 -89.7608 281° West 327 376 38,000  Level Memphis Center
01:39PM 36.7672 -89.8714 281° West 327 376 38,000  Level Memphis Center
01:40PM 36.7842 -89.9833 281° West 327 376 38,000  Level Memphis Center
01:41PM 36.8039 -90.1183 280° West 327 376 38,000  Level Memphis Center
01:42PM 36.8211 -90.2303 281° West 327 376 38,000  Level Memphis Center
01:43PM 36.8375 -90.3422 280° West 328 377 38,000  Level Memphis Center
01:44PM 36.8533 -90.4556 280° West 328 377 38,000  Level Memphis Center
01:45PM 36.8689 -90.5694 280° West 329 379 38,000  Level Memphis Center
01:46PM 36.8853 -90.6822 280° West 330 380 38,000  Level Memphis Center
01:47PM 36.9044 -90.8172 280° West 330 380 38,000  Level Memphis Center
01:48PM 36.9214 -90.9294 281° West 330 380 38,000  Level Memphis Center
01:49PM 36.9364 -91.0428 279° West 330 380 38,000  Level Memphis Center
01:50PM 36.9528 -91.1550 280° West 330 380 38,000  Level Memphis Center
01:51PM 36.9678 -91.2700 279° West 330 380 38,000  Level Memphis Center
01:52PM 36.9822 -91.3856 279° West 331 381 38,000  Level Memphis Center
01:53PM 37.0031 -91.5197 281° West 331 381 38,000  Level Memphis Center
01:54PM 37.0178 -91.6344 279° West 331 381 38,000  Level Memphis Center
01:55PM 37.0331 -91.7494 279° West 332 382 38,000  Level Memphis Center
01:56PM 37.0486 -91.8658 280° West 332 382 38,000  Level Memphis Center
01:57PM 37.0633 -91.9808 279° West 332 382 38,000  Level Memphis Center
01:58PM 37.0789 -92.0953 280° West 332 382 38,000  Level Memphis Center
01:59PM 37.0939 -92.2106 279° West 332 382 38,000  Level Memphis Center
02:01PM 37.1183 -92.3956 279° West 333 383 38,000  Level Kansas City Center
02:02PM 37.1328 -92.5117 279° West 333 383 38,000  Level Kansas City Center
02:03PM 37.1475 -92.6275 279° West 333 383 38,000  Level Kansas City Center
02:04PM 37.1614 -92.7425 279° West 333 383 38,000  Level Kansas City Center
02:05PM 37.1764 -92.8572 279° West 333 383 38,000  Level Kansas City Center
02:06PM 37.1903 -92.9742 279° West 333 383 38,000  Level Kansas City Center
02:07PM 37.2053 -93.0925 279° West 338 389 38,000  Level Kansas City Center
02:08PM 37.2225 -93.2328 279° West 338 389 38,000  Level Kansas City Center
02:09PM 37.2364 -93.3511 278° West 339 390 38,000  Level Kansas City Center
02:10PM 37.2514 -93.4703 279° West 340 391 38,000  Level Kansas City Center
02:11PM 37.2661 -93.5892 279° West 342 394 38,000  Level Kansas City Center
02:12PM 37.2794 -93.7072 278° West 342 394 38,000  Level Kansas City Center
02:13PM 37.2931 -93.8239 278° West 341 392 38,000  Level Kansas City Center
02:14PM 37.3058 -93.9433 278° West 341 392 38,000  Level Kansas City Center
02:15PM 37.3214 -94.0853 278° West 341 392 38,000  Level Kansas City Center
02:16PM 37.3325 -94.1917 278° West 341 392 38,000  Level Kansas City Center
02:17PM 37.3464 -94.3108 278° West 341 392 38,000  Level Kansas City Center
02:19PM 37.3614 -94.4531 278° West 341 392 38,000  Level Kansas City Center
02:20PM 37.3750 -94.5708 278° West 342 394 38,000  Level Kansas City Center
02:21PM 37.3881 -94.6906 278° West 342 394 38,000  Level Kansas City Center
02:22PM 37.4006 -94.8111 277° West 346 398 38,000  Level Kansas City Center
02:23PM 37.4131 -94.9325 277° West 349 402 38,000  Level Kansas City Center
02:24PM 37.4264 -95.0531 278° West 349 402 38,000 -240 Level Kansas City Center
02:25PM 37.4400 -95.1950 277° West 348 400 37,600 -420 Descending Kansas City Center
02:26PM 37.4525 -95.3133 278° West 347 399 37,200 -540 Descending Kansas City Center
02:27PM 37.4642 -95.4283 277° West 340 391 36,500 -840 Descending Kansas City Center
02:28PM 37.4758 -95.5456 277° West 339 390 35,500 -1,080 Descending Kansas City Center
02:29PM 37.4881 -95.6639 277° West 339 390 34,300 -1,440 Descending Kansas City Center
02:30PM 37.4997 -95.7822 277° West 340 391 32,600 -2,040 Descending Kansas City Center
02:31PM 37.5131 -95.9275 277° West 348 400 30,200 -2,160 Descending Kansas City Center
02:32PM 37.5253 -96.0497 277° West 349 402 28,200 -2,220 Descending Kansas City Center
02:33PM 37.5381 -96.1739 277° West 352 405 25,700 -2,220 Descending Kansas City Center
02:34PM 37.5481 -96.3078 275° West 373 429 23,700 -2,700 Descending Kansas City Center
02:35PM 37.5606 -96.4328 277° West 363 418 20,200 -3,720 Descending Kansas City Center
02:35PM 37.5642 -96.4728 277° West 358 412 19,000 -3,300 Descending Kansas City Center
02:36PM 37.5717 -96.5542 277° West 351 404 16,800 -3,420 Descending Kansas City Center
02:37PM 37.5842 -96.6836 277° West 342 394 13,100 -3,720 Descending Kansas City Center
02:37PM 37.5842 -96.6967 270° West 344 396 13,000 -1,140 Descending Kansas City Center
02:38PM 37.5839 -96.8025 270° West 335 386 12,000 -1,080 Descending Kansas City Center
02:38PM 37.5822 -96.8139 260° West 338 389 11,900 -1,380 Descending Kansas City Center
02:39PM 37.5800 -96.9272 269° West 332 382 10,500 -1,560 Descending Kansas City Center
02:39PM 37.5753 -96.9339 228° Southwest 335 386 10,300 -2,400 Descending Kansas City Center
02:40PM 37.5556 -97.0183 254° West 284 327 8,300 -2,460 Descending Kansas City Center
02:40PM 37.5503 -97.0361 249° West 288 331 7,800 -1,980 Descending Kansas City Center
02:41PM 37.5258 -97.1308 252° West 278 320 5,900 -1,380 Descending Kansas City Center
02:42PM 37.5039 -97.2142 252° West 270 311 5,100 -780 Descending Kansas City Center
02:42PM 37.5011 -97.2208 242° Southwest 275 316 5,100 -120 Level Kansas City Center
02:43PM 37.5103 -97.3000 278° West 255 293 5,000 -300 Descending Kansas City Center
02:43PM 37.5153 -97.3122 297° West 256 295 4,800 -660 Descending Kansas City Center
02:44PM 37.5394 -97.3617 302° West 238 274 4,400 -600 Descending Kansas City Center
02:44PM 37.5439 -97.3850 284° West 232 267 4,200 -1,200 Descending Kansas City Center
02:45PM 37.5572 -97.4353 289° West 179 206 3,200 -1,200 Descending Kansas City Center
02:45PM 37.5628 -97.4464 302° West 190 219 3,000 -720 Descending Kansas City Center
02:46PM 37.5942 -97.4481 358° North 141 162 2,500 -600 Descending Kansas City Center
02:46PM 37.6036 -97.4433 22° Northeast 141 162 2,400 -780 Descending Kansas City Center
02:47PM 37.6225 -97.4358 17° North 107 123 1,800 -780 Descending Kansas City Center
02:47PM 37.6347 -97.4300 21° North 123 142 1,600 -360 Descending Kansas City Center
02:49PM 37.6622 -97.4172 20° North 123 142 1,300 -300 Descending Kansas City Center
02:50PM 37.6499 -97.4331 226° Southwest  Level Estimated
02:57PM 37.6499 -97.4331 North  Level Estimated